Aérodrome :
LOGIN :

S'inscrire | Disclaimer

   EN    FR    IT 

 










Légende :    VFR   VFR Marginal   IFR   IFR Intensif   IFR Très Intensif
Visi : 
Plafond : 
>= 8 km
>= 3000ft
5 à 8 km
1000 à 3000 ft
1500m à 5 km
500 à 1000 ft
800 à 1500m
200 à 500 ft
< 800m
< 200 ft
Symboles :   Orages  Brouillard  Fortes neiges  Fortes précipitations  Vent > 20 kt
SIGMETs :   Divers  Orages  Givrage  Turbulence  Onde Orograph.  Cendres Volcan.







- Altitude de l'aérodrome : 1470 ft
- Code IATA : KLU


LOWK - Klagenfurt

DERNIER METAR :
  • 160650Z 28003KT 210V350 9999 FEW040 23/14 Q1015 NOSIG

METARs EXPIRÉS :
  • 160620Z 27003KT 200V360 CAVOK 22/13 Q1015 NOSIG
  • 160550Z 29004KT 260V340 CAVOK 21/13 Q1015 NOSIG
  • 160520Z 28004KT 240V300 CAVOK 18/14 Q1015 NOSIG
  • 160450Z AUTO 29005KT 9999 NSC 17/13 Q1015 NOSIG
  • 160420Z AUTO 29004KT 250V330 9999 NSC 16/13 Q1015 NOSIG

TAF TAF LOWK
Valide du 16 à 06h jusqu'au 17 à 06h UTC


160515Z 1606/1706 VRB02KT CAVOK TX28/1613Z TN16/1703Z
BECMG 1609/1611 9999 FEW060 FEW060CB SCT300
TEMPO 1613/1619 VRB15G25KT TSRA SCT050 FEW050CB BKN090
BECMG 1619/1621 FEW050 SCT100 BKN330
Pas de NOTAMs connus pour ce terrain.



MET'MAP, la Météo Aéronautique d'un coup d'oeil ! - Copyright ORBIFLY Décembre 2007 - Disclaimer

ORBIFLY MET'MAP TEAM :

Programmation & Développement : Alexandra Zaïnal
Conception & Développement : Baudouin d'Aumeries
Co-Programmation & Développement : Marc-Olivier Méhu
Soutien technique & logistique : Manuel Goepfert

Contact : metmap@orbifly.com




SOURCES & CREDITS :

   NOAA